sensor_id;sensor_type;location;lat;lon;timestamp;P1;durP1;ratioP1;P2;durP2;ratioP2
22967;SDS011;11650;48.106;-1.696;2022-07-24T00:01:34;5.57;;;1.80;;
22967;SDS011;11650;48.106;-1.696;2022-07-24T00:04:00;2.70;;;1.73;;
22967;SDS011;11650;48.106;-1.696;2022-07-24T00:06:25;2.27;;;1.67;;
22967;SDS011;11650;48.106;-1.696;2022-07-24T00:08:51;4.63;;;1.80;;
22967;SDS011;11650;48.106;-1.696;2022-07-24T00:11:17;4.43;;;1.80;;
22967;SDS011;11650;48.106;-1.696;2022-07-24T00:13:43;2.33;;;1.90;;
22967;SDS011;11650;48.106;-1.696;2022-07-24T00:16:09;3.00;;;1.93;;
22967;SDS011;11650;48.106;-1.696;2022-07-24T00:18:34;3.63;;;1.87;;
22967;SDS011;11650;48.106;-1.696;2022-07-24T00:21:00;3.13;;;1.80;;
22967;SDS011;11650;48.106;-1.696;2022-07-24T00:23:26;2.80;;;1.97;;
22967;SDS011;11650;48.106;-1.696;2022-07-24T00:25:52;3.17;;;1.80;;
22967;SDS011;11650;48.106;-1.696;2022-07-24T00:28:18;3.20;;;1.73;;
22967;SDS011;11650;48.106;-1.696;2022-07-24T00:30:45;3.47;;;1.80;;
22967;SDS011;11650;48.106;-1.696;2022-07-24T00:33:11;3.23;;;1.80;;
22967;SDS011;11650;48.106;-1.696;2022-07-24T00:35:36;2.97;;;1.70;;
22967;SDS011;11650;48.106;-1.696;2022-07-24T00:38:02;2.97;;;1.70;;
22967;SDS011;11650;48.106;-1.696;2022-07-24T00:40:28;2.23;;;1.63;;
22967;SDS011;11650;48.106;-1.696;2022-07-24T00:42:55;3.43;;;1.97;;
22967;SDS011;11650;48.106;-1.696;2022-07-24T00:45:21;3.60;;;1.83;;
22967;SDS011;11650;48.106;-1.696;2022-07-24T00:47:47;2.93;;;1.63;;
22967;SDS011;11650;48.106;-1.696;2022-07-24T00:50:13;2.70;;;1.67;;
22967;SDS011;11650;48.106;-1.696;2022-07-24T00:52:39;2.17;;;1.60;;
22967;SDS011;11650;48.106;-1.696;2022-07-24T00:55:05;2.57;;;1.70;;
22967;SDS011;11650;48.106;-1.696;2022-07-24T00:57:31;3.83;;;1.70;;
22967;SDS011;11650;48.106;-1.696;2022-07-24T00:59:57;2.30;;;1.53;;
22967;SDS011;11650;48.106;-1.696;2022-07-24T01:02:23;2.80;;;1.67;;
22967;SDS011;11650;48.106;-1.696;2022-07-24T01:04:49;5.10;;;1.90;;
22967;SDS011;11650;48.106;-1.696;2022-07-24T01:07:15;3.53;;;1.60;;
22967;SDS011;11650;48.106;-1.696;2022-07-24T01:09:42;3.60;;;1.57;;
22967;SDS011;11650;48.106;-1.696;2022-07-24T01:12:08;4.57;;;1.93;;
22967;SDS011;11650;48.106;-1.696;2022-07-24T01:14:34;2.57;;;1.53;;
22967;SDS011;11650;48.106;-1.696;2022-07-24T01:17:00;3.80;;;1.70;;
22967;SDS011;11650;48.106;-1.696;2022-07-24T01:19:26;4.03;;;1.70;;
22967;SDS011;11650;48.106;-1.696;2022-07-24T01:21:53;5.20;;;1.93;;
22967;SDS011;11650;48.106;-1.696;2022-07-24T01:24:19;2.10;;;1.80;;
22967;SDS011;11650;48.106;-1.696;2022-07-24T01:26:46;3.67;;;1.87;;
22967;SDS011;11650;48.106;-1.696;2022-07-24T01:29:12;3.03;;;1.70;;
22967;SDS011;11650;48.106;-1.696;2022-07-24T01:31:39;2.10;;;1.60;;
22967;SDS011;11650;48.106;-1.696;2022-07-24T01:34:04;2.40;;;1.70;;
22967;SDS011;11650;48.106;-1.696;2022-07-24T01:36:30;1.73;;;1.50;;
22967;SDS011;11650;48.106;-1.696;2022-07-24T01:38:56;3.23;;;1.67;;
22967;SDS011;11650;48.106;-1.696;2022-07-24T01:41:22;4.00;;;1.70;;
22967;SDS011;11650;48.106;-1.696;2022-07-24T01:43:48;1.67;;;1.50;;
22967;SDS011;11650;48.106;-1.696;2022-07-24T01:46:13;4.07;;;1.80;;
22967;SDS011;11650;48.106;-1.696;2022-07-24T01:48:42;2.27;;;1.83;;
22967;SDS011;11650;48.106;-1.696;2022-07-24T01:51:09;3.57;;;1.80;;
22967;SDS011;11650;48.106;-1.696;2022-07-24T01:53:35;3.10;;;1.87;;
22967;SDS011;11650;48.106;-1.696;2022-07-24T01:56:01;3.17;;;1.60;;
22967;SDS011;11650;48.106;-1.696;2022-07-24T01:58:27;3.97;;;1.60;;
22967;SDS011;11650;48.106;-1.696;2022-07-24T02:00:53;3.20;;;1.70;;
22967;SDS011;11650;48.106;-1.696;2022-07-24T02:03:19;3.67;;;1.63;;
22967;SDS011;11650;48.106;-1.696;2022-07-24T02:05:45;5.07;;;2.03;;
22967;SDS011;11650;48.106;-1.696;2022-07-24T02:08:12;2.97;;;1.57;;
22967;SDS011;11650;48.106;-1.696;2022-07-24T02:10:38;2.30;;;1.80;;
22967;SDS011;11650;48.106;-1.696;2022-07-24T02:13:04;1.80;;;1.70;;
22967;SDS011;11650;48.106;-1.696;2022-07-24T02:15:30;2.80;;;1.90;;
22967;SDS011;11650;48.106;-1.696;2022-07-24T02:17:57;6.10;;;1.80;;
22967;SDS011;11650;48.106;-1.696;2022-07-24T02:20:25;3.13;;;2.00;;
22967;SDS011;11650;48.106;-1.696;2022-07-24T02:22:51;3.00;;;1.90;;
22967;SDS011;11650;48.106;-1.696;2022-07-24T02:25:17;5.43;;;1.90;;
22967;SDS011;11650;48.106;-1.696;2022-07-24T02:27:42;4.37;;;1.93;;
22967;SDS011;11650;48.106;-1.696;2022-07-24T02:30:09;4.60;;;2.00;;
22967;SDS011;11650;48.106;-1.696;2022-07-24T02:32:37;3.00;;;2.00;;
22967;SDS011;11650;48.106;-1.696;2022-07-24T02:35:03;3.40;;;1.80;;
22967;SDS011;11650;48.106;-1.696;2022-07-24T02:37:29;4.33;;;1.80;;
22967;SDS011;11650;48.106;-1.696;2022-07-24T02:39:55;2.90;;;2.10;;
22967;SDS011;11650;48.106;-1.696;2022-07-24T02:42:21;2.90;;;2.03;;
22967;SDS011;11650;48.106;-1.696;2022-07-24T02:44:46;2.37;;;1.83;;
22967;SDS011;11650;48.106;-1.696;2022-07-24T02:47:12;4.33;;;2.10;;
22967;SDS011;11650;48.106;-1.696;2022-07-24T02:49:38;2.30;;;2.10;;
22967;SDS011;11650;48.106;-1.696;2022-07-24T02:52:03;2.10;;;1.90;;
22967;SDS011;11650;48.106;-1.696;2022-07-24T02:54:29;3.70;;;2.17;;
22967;SDS011;11650;48.106;-1.696;2022-07-24T02:56:55;5.63;;;2.10;;
22967;SDS011;11650;48.106;-1.696;2022-07-24T02:59:21;3.73;;;1.90;;
22967;SDS011;11650;48.106;-1.696;2022-07-24T03:01:47;3.57;;;1.90;;
22967;SDS011;11650;48.106;-1.696;2022-07-24T03:04:13;5.63;;;2.17;;
22967;SDS011;11650;48.106;-1.696;2022-07-24T03:06:38;2.47;;;1.87;;
22967;SDS011;11650;48.106;-1.696;2022-07-24T03:09:04;2.53;;;1.63;;
22967;SDS011;11650;48.106;-1.696;2022-07-24T03:11:29;3.90;;;2.00;;
22967;SDS011;11650;48.106;-1.696;2022-07-24T03:13:55;1.87;;;1.60;;
22967;SDS011;11650;48.106;-1.696;2022-07-24T03:16:21;5.27;;;1.80;;
22967;SDS011;11650;48.106;-1.696;2022-07-24T03:18:46;3.63;;;1.90;;
22967;SDS011;11650;48.106;-1.696;2022-07-24T03:21:13;4.73;;;1.90;;
22967;SDS011;11650;48.106;-1.696;2022-07-24T03:23:40;3.03;;;2.07;;
22967;SDS011;11650;48.106;-1.696;2022-07-24T03:26:06;5.33;;;2.10;;
22967;SDS011;11650;48.106;-1.696;2022-07-24T03:28:32;3.93;;;2.03;;
22967;SDS011;11650;48.106;-1.696;2022-07-24T03:30:57;5.73;;;1.93;;
22967;SDS011;11650;48.106;-1.696;2022-07-24T03:33:25;4.50;;;2.20;;
22967;SDS011;11650;48.106;-1.696;2022-07-24T03:35:51;6.60;;;2.37;;
22967;SDS011;11650;48.106;-1.696;2022-07-24T03:38:17;4.07;;;2.10;;
22967;SDS011;11650;48.106;-1.696;2022-07-24T03:40:43;5.40;;;2.40;;
22967;SDS011;11650;48.106;-1.696;2022-07-24T03:43:08;3.27;;;1.90;;
22967;SDS011;11650;48.106;-1.696;2022-07-24T03:45:34;4.07;;;2.17;;
22967;SDS011;11650;48.106;-1.696;2022-07-24T03:47:59;4.10;;;2.20;;
22967;SDS011;11650;48.106;-1.696;2022-07-24T03:50:25;4.13;;;1.90;;
22967;SDS011;11650;48.106;-1.696;2022-07-24T03:52:51;4.70;;;1.90;;
22967;SDS011;11650;48.106;-1.696;2022-07-24T03:55:17;3.73;;;2.10;;
22967;SDS011;11650;48.106;-1.696;2022-07-24T03:57:43;2.30;;;1.70;;
22967;SDS011;11650;48.106;-1.696;2022-07-24T04:00:08;2.63;;;1.97;;
22967;SDS011;11650;48.106;-1.696;2022-07-24T04:02:34;2.27;;;2.07;;
22967;SDS011;11650;48.106;-1.696;2022-07-24T04:05:00;3.20;;;1.90;;
22967;SDS011;11650;48.106;-1.696;2022-07-24T04:07:27;2.10;;;1.90;;
22967;SDS011;11650;48.106;-1.696;2022-07-24T04:09:53;3.97;;;2.10;;
22967;SDS011;11650;48.106;-1.696;2022-07-24T04:12:18;2.43;;;2.20;;
22967;SDS011;11650;48.106;-1.696;2022-07-24T04:14:44;3.10;;;1.97;;
22967;SDS011;11650;48.106;-1.696;2022-07-24T04:17:10;2.50;;;2.00;;
22967;SDS011;11650;48.106;-1.696;2022-07-24T04:19:35;3.33;;;2.03;;
22967;SDS011;11650;48.106;-1.696;2022-07-24T04:22:01;4.90;;;2.00;;
22967;SDS011;11650;48.106;-1.696;2022-07-24T04:24:26;2.90;;;1.87;;
22967;SDS011;11650;48.106;-1.696;2022-07-24T04:26:52;2.43;;;1.77;;
22967;SDS011;11650;48.106;-1.696;2022-07-24T04:29:18;3.20;;;1.67;;
22967;SDS011;11650;48.106;-1.696;2022-07-24T04:31:43;2.37;;;1.90;;
22967;SDS011;11650;48.106;-1.696;2022-07-24T04:34:10;1.93;;;1.83;;
22967;SDS011;11650;48.106;-1.696;2022-07-24T04:36:35;4.33;;;1.83;;
22967;SDS011;11650;48.106;-1.696;2022-07-24T04:39:01;3.00;;;1.93;;
22967;SDS011;11650;48.106;-1.696;2022-07-24T04:41:27;2.23;;;1.80;;
22967;SDS011;11650;48.106;-1.696;2022-07-24T04:43:53;2.27;;;1.87;;
22967;SDS011;11650;48.106;-1.696;2022-07-24T04:46:19;2.40;;;2.00;;
22967;SDS011;11650;48.106;-1.696;2022-07-24T04:48:44;3.43;;;2.13;;
22967;SDS011;11650;48.106;-1.696;2022-07-24T04:51:10;3.57;;;2.10;;
22967;SDS011;11650;48.106;-1.696;2022-07-24T04:53:36;3.60;;;2.00;;
22967;SDS011;11650;48.106;-1.696;2022-07-24T04:56:02;4.23;;;2.10;;
22967;SDS011;11650;48.106;-1.696;2022-07-24T04:58:27;5.50;;;2.17;;
22967;SDS011;11650;48.106;-1.696;2022-07-24T05:00:53;2.93;;;2.30;;
22967;SDS011;11650;48.106;-1.696;2022-07-24T05:03:19;3.70;;;2.30;;
22967;SDS011;11650;48.106;-1.696;2022-07-24T05:05:44;3.87;;;1.97;;
22967;SDS011;11650;48.106;-1.696;2022-07-24T05:08:10;2.40;;;2.00;;
22967;SDS011;11650;48.106;-1.696;2022-07-24T05:10:36;3.43;;;2.20;;
22967;SDS011;11650;48.106;-1.696;2022-07-24T05:13:02;4.17;;;2.17;;
22967;SDS011;11650;48.106;-1.696;2022-07-24T05:15:27;3.23;;;2.03;;
22967;SDS011;11650;48.106;-1.696;2022-07-24T05:17:53;4.27;;;2.10;;
22967;SDS011;11650;48.106;-1.696;2022-07-24T05:20:18;6.00;;;2.13;;
22967;SDS011;11650;48.106;-1.696;2022-07-24T05:22:44;2.40;;;2.20;;
22967;SDS011;11650;48.106;-1.696;2022-07-24T05:25:10;3.43;;;2.10;;
22967;SDS011;11650;48.106;-1.696;2022-07-24T05:27:35;3.30;;;2.10;;
22967;SDS011;11650;48.106;-1.696;2022-07-24T05:30:02;3.67;;;2.20;;
22967;SDS011;11650;48.106;-1.696;2022-07-24T05:32:29;3.50;;;2.00;;
22967;SDS011;11650;48.106;-1.696;2022-07-24T05:34:54;2.00;;;1.80;;
22967;SDS011;11650;48.106;-1.696;2022-07-24T05:37:20;3.80;;;2.03;;
22967;SDS011;11650;48.106;-1.696;2022-07-24T05:39:45;3.87;;;2.27;;
22967;SDS011;11650;48.106;-1.696;2022-07-24T05:42:11;1.80;;;1.57;;
22967;SDS011;11650;48.106;-1.696;2022-07-24T05:44:37;2.47;;;1.80;;
22967;SDS011;11650;48.106;-1.696;2022-07-24T05:47:03;3.63;;;2.17;;
22967;SDS011;11650;48.106;-1.696;2022-07-24T05:49:29;3.10;;;1.90;;
22967;SDS011;11650;48.106;-1.696;2022-07-24T05:51:55;4.60;;;2.10;;
22967;SDS011;11650;48.106;-1.696;2022-07-24T05:54:21;3.83;;;2.00;;
22967;SDS011;11650;48.106;-1.696;2022-07-24T05:56:46;3.97;;;2.10;;
22967;SDS011;11650;48.106;-1.696;2022-07-24T05:59:12;3.07;;;2.00;;
22967;SDS011;11650;48.106;-1.696;2022-07-24T06:01:38;4.57;;;2.17;;
22967;SDS011;11650;48.106;-1.696;2022-07-24T06:04:03;2.30;;;1.97;;
22967;SDS011;11650;48.106;-1.696;2022-07-24T06:06:29;2.53;;;2.17;;
22967;SDS011;11650;48.106;-1.696;2022-07-24T06:08:55;3.10;;;2.10;;
22967;SDS011;11650;48.106;-1.696;2022-07-24T06:11:20;3.47;;;2.30;;
22967;SDS011;11650;48.106;-1.696;2022-07-24T06:13:47;3.33;;;2.30;;
22967;SDS011;11650;48.106;-1.696;2022-07-24T06:16:13;2.57;;;2.33;;
22967;SDS011;11650;48.106;-1.696;2022-07-24T06:18:39;3.40;;;2.10;;
22967;SDS011;11650;48.106;-1.696;2022-07-24T06:21:04;4.17;;;2.10;;
22967;SDS011;11650;48.106;-1.696;2022-07-24T06:23:30;6.43;;;2.27;;
22967;SDS011;11650;48.106;-1.696;2022-07-24T06:25:57;2.67;;;2.30;;
22967;SDS011;11650;48.106;-1.696;2022-07-24T06:28:23;2.83;;;2.23;;
22967;SDS011;11650;48.106;-1.696;2022-07-24T06:30:49;2.90;;;2.10;;
22967;SDS011;11650;48.106;-1.696;2022-07-24T06:33:15;2.40;;;2.20;;
22967;SDS011;11650;48.106;-1.696;2022-07-24T06:35:41;2.27;;;1.90;;
22967;SDS011;11650;48.106;-1.696;2022-07-24T06:38:06;3.20;;;2.07;;
22967;SDS011;11650;48.106;-1.696;2022-07-24T06:40:32;4.00;;;1.90;;
22967;SDS011;11650;48.106;-1.696;2022-07-24T06:42:59;5.53;;;2.00;;
22967;SDS011;11650;48.106;-1.696;2022-07-24T06:45:25;2.70;;;1.70;;
22967;SDS011;11650;48.106;-1.696;2022-07-24T06:47:50;2.87;;;1.87;;
22967;SDS011;11650;48.106;-1.696;2022-07-24T06:50:16;3.53;;;1.93;;
22967;SDS011;11650;48.106;-1.696;2022-07-24T06:52:42;2.73;;;1.70;;
22967;SDS011;11650;48.106;-1.696;2022-07-24T06:55:08;7.03;;;1.93;;
22967;SDS011;11650;48.106;-1.696;2022-07-24T06:57:34;2.20;;;2.00;;
22967;SDS011;11650;48.106;-1.696;2022-07-24T07:00:00;2.47;;;1.80;;
22967;SDS011;11650;48.106;-1.696;2022-07-24T07:02:25;3.23;;;1.73;;
22967;SDS011;11650;48.106;-1.696;2022-07-24T07:04:51;2.20;;;1.60;;
22967;SDS011;11650;48.106;-1.696;2022-07-24T07:07:17;2.80;;;1.70;;
22967;SDS011;11650;48.106;-1.696;2022-07-24T07:09:43;2.53;;;1.77;;
22967;SDS011;11650;48.106;-1.696;2022-07-24T07:12:09;2.33;;;1.70;;
22967;SDS011;11650;48.106;-1.696;2022-07-24T07:14:34;3.83;;;1.70;;
22967;SDS011;11650;48.106;-1.696;2022-07-24T07:17:00;2.60;;;1.50;;
22967;SDS011;11650;48.106;-1.696;2022-07-24T07:19:26;2.60;;;1.43;;
22967;SDS011;11650;48.106;-1.696;2022-07-24T07:21:52;1.90;;;1.30;;
22967;SDS011;11650;48.106;-1.696;2022-07-24T07:24:17;2.27;;;1.40;;
22967;SDS011;11650;48.106;-1.696;2022-07-24T07:26:44;2.60;;;1.37;;
22967;SDS011;11650;48.106;-1.696;2022-07-24T07:29:09;2.50;;;1.00;;
22967;SDS011;11650;48.106;-1.696;2022-07-24T07:31:35;1.10;;;1.00;;
22967;SDS011;11650;48.106;-1.696;2022-07-24T07:34:01;1.63;;;1.10;;
22967;SDS011;11650;48.106;-1.696;2022-07-24T07:36:26;2.10;;;1.00;;
22967;SDS011;11650;48.106;-1.696;2022-07-24T07:38:52;1.57;;;1.10;;
22967;SDS011;11650;48.106;-1.696;2022-07-24T07:41:18;2.37;;;1.40;;
22967;SDS011;11650;48.106;-1.696;2022-07-24T07:43:45;2.00;;;1.30;;
22967;SDS011;11650;48.106;-1.696;2022-07-24T07:46:12;2.07;;;1.17;;
22967;SDS011;11650;48.106;-1.696;2022-07-24T07:48:38;1.70;;;1.30;;
22967;SDS011;11650;48.106;-1.696;2022-07-24T07:51:04;1.20;;;1.10;;
22967;SDS011;11650;48.106;-1.696;2022-07-24T07:53:29;2.60;;;1.23;;
22967;SDS011;11650;48.106;-1.696;2022-07-24T07:55:55;1.73;;;1.40;;
22967;SDS011;11650;48.106;-1.696;2022-07-24T07:58:21;2.40;;;1.40;;
22967;SDS011;11650;48.106;-1.696;2022-07-24T08:00:52;1.47;;;1.10;;
22967;SDS011;11650;48.106;-1.696;2022-07-24T08:03:18;2.57;;;1.30;;
22967;SDS011;11650;48.106;-1.696;2022-07-24T08:05:44;2.20;;;1.10;;
22967;SDS011;11650;48.106;-1.696;2022-07-24T08:08:09;1.30;;;1.20;;
22967;SDS011;11650;48.106;-1.696;2022-07-24T08:10:35;1.57;;;1.07;;
22967;SDS011;11650;48.106;-1.696;2022-07-24T08:13:01;2.43;;;1.40;;
22967;SDS011;11650;48.106;-1.696;2022-07-24T08:15:26;1.70;;;1.30;;
22967;SDS011;11650;48.106;-1.696;2022-07-24T08:17:53;2.53;;;1.40;;
22967;SDS011;11650;48.106;-1.696;2022-07-24T08:20:20;2.50;;;1.40;;
22967;SDS011;11650;48.106;-1.696;2022-07-24T08:22:46;4.20;;;1.50;;
22967;SDS011;11650;48.106;-1.696;2022-07-24T08:25:12;1.63;;;1.10;;
22967;SDS011;11650;48.106;-1.696;2022-07-24T08:27:38;1.73;;;1.10;;
22967;SDS011;11650;48.106;-1.696;2022-07-24T08:30:04;1.20;;;1.10;;
22967;SDS011;11650;48.106;-1.696;2022-07-24T08:32:31;2.97;;;1.00;;
22967;SDS011;11650;48.106;-1.696;2022-07-24T08:34:57;2.80;;;1.20;;
22967;SDS011;11650;48.106;-1.696;2022-07-24T08:37:23;1.73;;;1.20;;
22967;SDS011;11650;48.106;-1.696;2022-07-24T08:39:48;2.30;;;1.10;;
22967;SDS011;11650;48.106;-1.696;2022-07-24T08:42:14;4.60;;;1.10;;
22967;SDS011;11650;48.106;-1.696;2022-07-24T08:44:40;2.27;;;1.13;;
22967;SDS011;11650;48.106;-1.696;2022-07-24T08:47:06;2.53;;;1.37;;
22967;SDS011;11650;48.106;-1.696;2022-07-24T08:49:34;2.13;;;1.20;;
22967;SDS011;11650;48.106;-1.696;2022-07-24T08:52:02;1.33;;;1.20;;
22967;SDS011;11650;48.106;-1.696;2022-07-24T08:54:29;1.70;;;1.27;;
22967;SDS011;11650;48.106;-1.696;2022-07-24T08:56:56;3.17;;;1.30;;
22967;SDS011;11650;48.106;-1.696;2022-07-24T08:59:22;2.17;;;1.10;;
22967;SDS011;11650;48.106;-1.696;2022-07-24T09:01:49;2.23;;;1.43;;
22967;SDS011;11650;48.106;-1.696;2022-07-24T09:07:02;2.53;;;1.20;;
22967;SDS011;11650;48.106;-1.696;2022-07-24T09:09:30;3.67;;;1.30;;
22967;SDS011;11650;48.106;-1.696;2022-07-24T09:12:06;1.47;;;0.90;;
22967;SDS011;11650;48.106;-1.696;2022-07-24T09:14:33;2.13;;;1.30;;
22967;SDS011;11650;48.106;-1.696;2022-07-24T09:17:10;1.77;;;1.10;;
22967;SDS011;11650;48.106;-1.696;2022-07-24T09:19:51;1.80;;;1.20;;
22967;SDS011;11650;48.106;-1.696;2022-07-24T09:32:56;4.70;;;1.10;;
22967;SDS011;11650;48.106;-1.696;2022-07-24T09:35:23;3.10;;;1.30;;
22967;SDS011;11650;48.106;-1.696;2022-07-24T09:38:00;2.20;;;1.27;;
22967;SDS011;11650;48.106;-1.696;2022-07-24T09:40:33;2.73;;;1.10;;
22967;SDS011;11650;48.106;-1.696;2022-07-24T09:45:57;2.17;;;1.37;;
22967;SDS011;11650;48.106;-1.696;2022-07-24T09:48:25;1.80;;;1.30;;
22967;SDS011;11650;48.106;-1.696;2022-07-24T09:51:18;3.43;;;1.10;;
22967;SDS011;11650;48.106;-1.696;2022-07-24T09:53:45;2.50;;;1.23;;
22967;SDS011;11650;48.106;-1.696;2022-07-24T09:56:13;2.87;;;1.00;;
22967;SDS011;11650;48.106;-1.696;2022-07-24T10:01:13;2.10;;;1.20;;
22967;SDS011;11650;48.106;-1.696;2022-07-24T10:03:41;1.80;;;1.20;;
22967;SDS011;11650;48.106;-1.696;2022-07-24T10:06:10;1.30;;;1.20;;
22967;SDS011;11650;48.106;-1.696;2022-07-24T10:08:42;2.30;;;1.10;;
22967;SDS011;11650;48.106;-1.696;2022-07-24T10:11:10;3.27;;;1.10;;
22967;SDS011;11650;48.106;-1.696;2022-07-24T10:13:37;2.00;;;1.20;;
22967;SDS011;11650;48.106;-1.696;2022-07-24T10:21:09;1.87;;;1.10;;
22967;SDS011;11650;48.106;-1.696;2022-07-24T10:26:46;1.90;;;1.03;;
22967;SDS011;11650;48.106;-1.696;2022-07-24T10:29:22;2.63;;;1.27;;
22967;SDS011;11650;48.106;-1.696;2022-07-24T10:39:32;2.43;;;1.30;;
22967;SDS011;11650;48.106;-1.696;2022-07-24T10:42:05;1.88;;;1.30;;
22967;SDS011;11650;48.106;-1.696;2022-07-24T10:44:31;2.23;;;1.40;;
22967;SDS011;11650;48.106;-1.696;2022-07-24T10:52:31;1.70;;;1.10;;
22967;SDS011;11650;48.106;-1.696;2022-07-24T10:57:45;1.73;;;1.23;;
22967;SDS011;11650;48.106;-1.696;2022-07-24T11:00:38;2.47;;;1.43;;
22967;SDS011;11650;48.106;-1.696;2022-07-24T11:03:22;1.83;;;1.42;;
22967;SDS011;11650;48.106;-1.696;2022-07-24T11:06:09;2.45;;;1.40;;
22967;SDS011;11650;48.106;-1.696;2022-07-24T11:08:39;2.65;;;1.40;;
22967;SDS011;11650;48.106;-1.696;2022-07-24T11:21:27;2.35;;;1.63;;
22967;SDS011;11650;48.106;-1.696;2022-07-24T11:29:20;2.08;;;1.30;;
22967;SDS011;11650;48.106;-1.696;2022-07-24T11:34:25;1.17;;;1.00;;
22967;SDS011;11650;48.106;-1.696;2022-07-24T11:36:53;1.95;;;1.15;;
22967;SDS011;11650;48.106;-1.696;2022-07-24T11:39:25;2.15;;;1.30;;
22967;SDS011;11650;48.106;-1.696;2022-07-24T11:41:54;1.75;;;1.20;;
22967;SDS011;11650;48.106;-1.696;2022-07-24T11:44:28;3.60;;;1.30;;
22967;SDS011;11650;48.106;-1.696;2022-07-24T11:46:55;1.67;;;1.52;;
22967;SDS011;11650;48.106;-1.696;2022-07-24T11:49:23;3.67;;;1.85;;
22967;SDS011;11650;48.106;-1.696;2022-07-24T11:51:51;2.65;;;1.60;;
22967;SDS011;11650;48.106;-1.696;2022-07-24T11:54:25;1.33;;;1.20;;
22967;SDS011;11650;48.106;-1.696;2022-07-24T11:56:52;4.35;;;1.42;;
22967;SDS011;11650;48.106;-1.696;2022-07-24T11:59:26;2.03;;;1.20;;
22967;SDS011;11650;48.106;-1.696;2022-07-24T12:02:02;2.53;;;1.40;;
22967;SDS011;11650;48.106;-1.696;2022-07-24T12:04:30;1.50;;;1.40;;
22967;SDS011;11650;48.106;-1.696;2022-07-24T12:06:55;2.42;;;1.38;;
22967;SDS011;11650;48.106;-1.696;2022-07-24T12:09:21;3.85;;;1.20;;
22967;SDS011;11650;48.106;-1.696;2022-07-24T12:11:47;1.40;;;1.20;;
22967;SDS011;11650;48.106;-1.696;2022-07-24T12:14:14;1.60;;;1.40;;
22967;SDS011;11650;48.106;-1.696;2022-07-24T12:16:41;1.40;;;1.30;;
22967;SDS011;11650;48.106;-1.696;2022-07-24T12:19:25;2.95;;;1.25;;
22967;SDS011;11650;48.106;-1.696;2022-07-24T12:21:52;1.88;;;1.27;;
22967;SDS011;11650;48.106;-1.696;2022-07-24T12:24:19;1.42;;;1.30;;
22967;SDS011;11650;48.106;-1.696;2022-07-24T12:26:49;1.45;;;1.20;;
22967;SDS011;11650;48.106;-1.696;2022-07-24T12:29:20;1.73;;;1.45;;
22967;SDS011;11650;48.106;-1.696;2022-07-24T12:31:47;1.15;;;1.05;;
22967;SDS011;11650;48.106;-1.696;2022-07-24T12:34:13;1.55;;;1.40;;
22967;SDS011;11650;48.106;-1.696;2022-07-24T12:36:39;2.33;;;1.15;;
22967;SDS011;11650;48.106;-1.696;2022-07-24T12:39:05;2.70;;;1.30;;
22967;SDS011;11650;48.106;-1.696;2022-07-24T12:41:39;2.47;;;1.15;;
22967;SDS011;11650;48.106;-1.696;2022-07-24T12:44:12;1.50;;;1.30;;
22967;SDS011;11650;48.106;-1.696;2022-07-24T12:46:39;1.73;;;1.17;;
22967;SDS011;11650;48.106;-1.696;2022-07-24T12:49:08;1.42;;;1.20;;
22967;SDS011;11650;48.106;-1.696;2022-07-24T12:51:54;1.52;;;1.10;;
22967;SDS011;11650;48.106;-1.696;2022-07-24T12:54:22;1.65;;;1.20;;
22967;SDS011;11650;48.106;-1.696;2022-07-24T12:56:53;2.95;;;1.10;;
22967;SDS011;11650;48.106;-1.696;2022-07-24T12:59:24;1.88;;;1.50;;
22967;SDS011;11650;48.106;-1.696;2022-07-24T13:01:55;2.78;;;1.27;;
22967;SDS011;11650;48.106;-1.696;2022-07-24T13:04:27;2.08;;;0.95;;
22967;SDS011;11650;48.106;-1.696;2022-07-24T13:06:57;1.73;;;1.20;;
22967;SDS011;11650;48.106;-1.696;2022-07-24T13:09:25;1.70;;;1.20;;
22967;SDS011;11650;48.106;-1.696;2022-07-24T13:11:52;1.20;;;1.10;;
22967;SDS011;11650;48.106;-1.696;2022-07-24T13:14:19;1.48;;;1.30;;
22967;SDS011;11650;48.106;-1.696;2022-07-24T13:16:46;1.45;;;1.00;;
22967;SDS011;11650;48.106;-1.696;2022-07-24T13:19:14;1.90;;;1.20;;
22967;SDS011;11650;48.106;-1.696;2022-07-24T13:21:41;2.55;;;1.17;;
22967;SDS011;11650;48.106;-1.696;2022-07-24T13:24:08;1.58;;;1.23;;
22967;SDS011;11650;48.106;-1.696;2022-07-24T13:26:35;2.15;;;1.48;;
22967;SDS011;11650;48.106;-1.696;2022-07-24T13:29:02;1.40;;;1.30;;
22967;SDS011;11650;48.106;-1.696;2022-07-24T13:31:29;1.70;;;1.35;;
22967;SDS011;11650;48.106;-1.696;2022-07-24T13:33:54;1.50;;;1.30;;
22967;SDS011;11650;48.106;-1.696;2022-07-24T13:36:20;2.55;;;1.40;;
22967;SDS011;11650;48.106;-1.696;2022-07-24T13:38:46;2.58;;;1.30;;
22967;SDS011;11650;48.106;-1.696;2022-07-24T13:41:12;1.40;;;1.20;;
22967;SDS011;11650;48.106;-1.696;2022-07-24T13:43:39;2.58;;;1.20;;
22967;SDS011;11650;48.106;-1.696;2022-07-24T13:46:05;2.22;;;1.30;;
22967;SDS011;11650;48.106;-1.696;2022-07-24T13:48:30;1.00;;;1.00;;
22967;SDS011;11650;48.106;-1.696;2022-07-24T13:50:56;1.45;;;1.35;;
22967;SDS011;11650;48.106;-1.696;2022-07-24T13:53:22;1.60;;;1.25;;
22967;SDS011;11650;48.106;-1.696;2022-07-24T13:55:48;1.65;;;1.20;;
22967;SDS011;11650;48.106;-1.696;2022-07-24T13:58:14;1.35;;;1.10;;
22967;SDS011;11650;48.106;-1.696;2022-07-24T14:00:40;2.47;;;1.20;;
22967;SDS011;11650;48.106;-1.696;2022-07-24T14:03:06;2.35;;;1.10;;
22967;SDS011;11650;48.106;-1.696;2022-07-24T14:05:31;1.10;;;1.00;;
22967;SDS011;11650;48.106;-1.696;2022-07-24T14:07:57;1.75;;;1.10;;
22967;SDS011;11650;48.106;-1.696;2022-07-24T14:10:23;1.35;;;1.10;;
22967;SDS011;11650;48.106;-1.696;2022-07-24T14:12:49;1.77;;;1.00;;
22967;SDS011;11650;48.106;-1.696;2022-07-24T14:15:15;1.52;;;1.10;;
22967;SDS011;11650;48.106;-1.696;2022-07-24T14:17:41;2.17;;;1.05;;
22967;SDS011;11650;48.106;-1.696;2022-07-24T14:20:11;4.65;;;1.38;;
22967;SDS011;11650;48.106;-1.696;2022-07-24T14:22:38;2.53;;;1.20;;
22967;SDS011;11650;48.106;-1.696;2022-07-24T14:25:05;3.45;;;1.10;;
22967;SDS011;11650;48.106;-1.696;2022-07-24T14:27:32;1.45;;;1.20;;
22967;SDS011;11650;48.106;-1.696;2022-07-24T14:29:58;1.95;;;1.30;;
22967;SDS011;11650;48.106;-1.696;2022-07-24T14:32:24;1.20;;;1.05;;
22967;SDS011;11650;48.106;-1.696;2022-07-24T14:34:49;1.60;;;1.10;;
22967;SDS011;11650;48.106;-1.696;2022-07-24T14:37:15;2.40;;;1.02;;
22967;SDS011;11650;48.106;-1.696;2022-07-24T14:39:41;1.60;;;1.17;;
22967;SDS011;11650;48.106;-1.696;2022-07-24T14:42:07;1.42;;;1.00;;
22967;SDS011;11650;48.106;-1.696;2022-07-24T14:44:33;1.25;;;1.10;;
22967;SDS011;11650;48.106;-1.696;2022-07-24T14:46:59;3.17;;;1.40;;
22967;SDS011;11650;48.106;-1.696;2022-07-24T14:49:26;1.40;;;1.20;;
22967;SDS011;11650;48.106;-1.696;2022-07-24T14:51:54;2.15;;;1.30;;
22967;SDS011;11650;48.106;-1.696;2022-07-24T14:54:20;1.77;;;1.05;;
22967;SDS011;11650;48.106;-1.696;2022-07-24T14:56:45;1.05;;;1.00;;
22967;SDS011;11650;48.106;-1.696;2022-07-24T14:59:11;1.20;;;1.08;;
22967;SDS011;11650;48.106;-1.696;2022-07-24T15:01:37;1.40;;;1.20;;
22967;SDS011;11650;48.106;-1.696;2022-07-24T15:04:03;1.33;;;0.93;;
22967;SDS011;11650;48.106;-1.696;2022-07-24T15:06:29;2.80;;;1.10;;
22967;SDS011;11650;48.106;-1.696;2022-07-24T15:08:55;1.25;;;1.10;;
22967;SDS011;11650;48.106;-1.696;2022-07-24T15:11:21;1.55;;;1.10;;
22967;SDS011;11650;48.106;-1.696;2022-07-24T15:13:50;1.30;;;1.20;;
22967;SDS011;11650;48.106;-1.696;2022-07-24T15:16:18;1.60;;;1.05;;
22967;SDS011;11650;48.106;-1.696;2022-07-24T15:18:45;2.35;;;1.20;;
22967;SDS011;11650;48.106;-1.696;2022-07-24T15:21:10;2.13;;;1.20;;
22967;SDS011;11650;48.106;-1.696;2022-07-24T15:23:36;4.03;;;1.00;;
22967;SDS011;11650;48.106;-1.696;2022-07-24T15:26:02;1.33;;;1.10;;
22967;SDS011;11650;48.106;-1.696;2022-07-24T15:28:28;2.75;;;1.02;;
22967;SDS011;11650;48.106;-1.696;2022-07-24T15:30:54;1.17;;;1.08;;
22967;SDS011;11650;48.106;-1.696;2022-07-24T15:33:19;1.00;;;0.90;;